This is the latest recevied weather packets stored in our database for station/object KY4EF. If no packets are shown the sender has not sent any weather packets the latest 10 day(s).
| Time | Temp. | Humidity | Pressure | Rain* | Wind** | Luminosity | Snow |
|---|---|---|---|---|---|---|---|
| 1777495669 | 26.67° C | 57% | 1009.6 hPa | 0 mm | - | 199 W/m² | - |
| 1777495365 | 25° C | 58% | 1009.8 hPa | 0 mm | - | 277 W/m² | - |
| 1777494456 | 26.67° C | 57% | 1010 hPa | 0 mm | - | 95 W/m² | - |
| 1777494152 | 27.22° C | 56% | 1010.1 hPa | 0 mm | - | 479 W/m² | - |
| 1777493850 | 26.11° C | 61% | 1010.2 hPa | 0 mm | - | 165 W/m² | - |
| 1777493245 | 26.67° C | 56% | 1010.6 hPa | 0 mm | - | 536 W/m² | - |
| 1777492942 | 25.56° C | 63% | 1010.7 hPa | 0 mm | - | 466 W/m² | - |
| 1777492638 | 25° C | 63% | 1011 hPa | 0 mm | - | 161 W/m² | - |
| 1777491727 | 24.44° C | 67% | 1010.9 hPa | 0 mm | - | 155 W/m² | - |
| 1777491424 | 25.56° C | 65% | 1011.1 hPa | 0 mm | - | 216 W/m² | - |
| 1777491121 | 25° C | 64% | 1010.8 hPa | 0 mm | - | 729 W/m² | - |
| 1777490816 | 25° C | 66% | 1011.1 hPa | 0 mm | - | 205 W/m² | - |
| 1777490513 | 25.56° C | 63% | 1010.9 hPa | 0 mm | - | 207 W/m² | - |
| 1777490209 | 24.44° C | 66% | 1011.1 hPa | 0 mm | - | 443 W/m² | - |
| 1777488998 | 24.44° C | 68% | 1011.4 hPa | 0 mm | - | 115 W/m² | - |
| 1777488393 | 25° C | 67% | 1011.4 hPa | 0 mm | - | 808 W/m² | - |
| 1777487184 | 24.44° C | 66% | 1011.6 hPa | 0 mm | - | 134 W/m² | - |
| 1777484150 | 22.78° C | 73% | 1011.6 hPa | 0 mm | - | 496 W/m² | - |
| 1777482630 | 21.67° C | 83% | 1011.9 hPa | 0 mm | - | 497 W/m² | - |
| 1777481722 | 19.44° C | 91% | 1012.4 hPa | 0 mm | - | 261 W/m² | - |
| 1777480812 | 20.56° C | 90% | 1012.8 hPa | 0 mm | - | 127 W/m² | - |
| 1777480509 | 20° C | 89% | 1012.6 hPa | 0 mm | - | 196 W/m² | - |
| 1777479902 | 20.56° C | 88% | 1012.5 hPa | 1.27 mm | - | 212 W/m² | - |
| 1777476262 | 21.67° C | 73% | 1012.8 hPa | 0 mm | - | 752 W/m² | - |
| 1777474742 | 19.44° C | 78% | 1013.1 hPa | 0 mm | - | 241 W/m² | - |
* Rain latest hour (hover to see other rain measurements)
** Current wind speed in m/s (hover to see current wind gust speed)